Time;durP1;ratioP1;P1;durP2;ratioP2;P2;SDS_P1;SDS_P2;PMS_P1;PMS_P2;Temp;Humidity;BMP_temperature;BMP_pressure;BME280_temperature;BME280_humidity;BME280_pressure;Samples;Min_cycle;Max_cycle;Signal;HPM_P1;HPM_P2
2021/10/04 00:00:15;;;;;;;2.03;1.77;;;22.70;57.20;;;;;;5073247;28;20200;-49
2021/10/04 00:02:43;;;;;;;1.77;1.60;;;22.70;56.50;;;;;;5075567;28;20693;-47
2021/10/04 00:05:10;;;;;;;1.80;1.70;;;22.70;56.40;;;;;;5078588;28;20444;-51
2021/10/04 00:07:36;;;;;;;2.00;1.80;;;22.70;56.40;;;;;;5080617;28;20494;-49
2021/10/04 00:10:06;;;;;;;1.80;1.70;;;22.70;56.60;;;;;;5088931;28;20468;-46
2021/10/04 00:12:31;;;;;;;2.27;2.10;;;22.70;56.50;;;;;;5080893;28;20832;-49
2021/10/04 00:14:57;;;;;;;3.07;1.70;;;22.70;56.20;;;;;;5078773;28;20436;-46
2021/10/04 00:17:23;;;;;;;2.20;2.00;;;22.70;56.20;;;;;;5078013;28;21415;-47
2021/10/04 00:19:48;;;;;;;1.80;1.70;;;22.80;56.40;;;;;;5081479;28;20188;-49
2021/10/04 00:22:14;;;;;;;2.20;2.00;;;22.80;56.20;;;;;;5074673;28;20202;-46
2021/10/04 00:24:39;;;;;;;1.53;1.40;;;22.70;55.40;;;;;;5091950;28;20199;-48
2021/10/04 00:27:05;;;;;;;1.20;1.10;;;22.60;55.60;;;;;;5091431;28;20274;-46
2021/10/04 00:29:31;;;;;;;1.40;1.30;;;22.50;55.00;;;;;;5084914;28;20243;-49
2021/10/04 00:31:57;;;;;;;2.27;1.00;;;22.50;54.70;;;;;;5081373;28;20562;-47
2021/10/04 00:34:22;;;;;;;1.50;1.40;;;22.40;54.40;;;;;;5084603;28;20678;-48
2021/10/04 00:36:48;;;;;;;1.50;1.40;;;22.30;54.70;;;;;;5074841;28;20196;-50
2021/10/04 00:39:14;;;;;;;1.50;1.17;;;22.30;54.70;;;;;;5075816;28;20199;-47
2021/10/04 00:41:39;;;;;;;1.40;1.30;;;22.20;54.50;;;;;;5074348;28;20235;-48
2021/10/04 00:44:05;;;;;;;1.43;1.23;;;22.10;54.40;;;;;;5077384;28;21818;-47
2021/10/04 00:46:31;;;;;;;1.53;1.43;;;22.00;54.60;;;;;;5078585;28;20199;-51
2021/10/04 00:48:57;;;;;;;1.70;0.97;;;22.00;54.60;;;;;;5084045;28;20702;-47
2021/10/04 00:51:22;;;;;;;1.20;1.10;;;21.90;55.10;;;;;;5085722;28;20187;-49
2021/10/04 00:53:51;;;;;;;1.27;1.00;;;21.90;54.60;;;;;;5078959;28;20344;-50
2021/10/04 00:56:17;;;;;;;1.27;1.17;;;21.80;54.60;;;;;;5087389;28;20199;-47
2021/10/04 00:58:43;;;;;;;1.40;1.30;;;21.70;54.90;;;;;;5078769;28;20444;-48
2021/10/04 01:01:09;;;;;;;1.50;1.40;;;21.60;54.90;;;;;;5082288;28;20438;-47
2021/10/04 01:03:35;;;;;;;1.37;1.10;;;21.50;54.90;;;;;;5073001;28;20288;-47
2021/10/04 01:06:01;;;;;;;1.10;1.00;;;21.50;54.90;;;;;;5084575;28;20611;-47
2021/10/04 01:08:27;;;;;;;1.50;1.30;;;21.50;55.20;;;;;;5087271;28;20487;-47
2021/10/04 01:10:53;;;;;;;1.13;1.07;;;21.60;55.20;;;;;;5078912;28;20438;-47
2021/10/04 01:13:19;;;;;;;2.30;1.17;;;21.40;55.20;;;;;;5079029;28;20694;-53
2021/10/04 01:15:44;;;;;;;1.43;0.83;;;21.40;55.30;;;;;;5081525;28;20429;-48
2021/10/04 01:18:10;;;;;;;1.20;0.90;;;21.40;55.50;;;;;;5079801;28;20198;-46
2021/10/04 01:20:36;;;;;;;2.00;1.30;;;21.40;55.40;;;;;;5081275;28;20212;-52
2021/10/04 01:23:03;;;;;;;1.17;1.07;;;21.40;55.20;;;;;;5080193;28;20198;-47
2021/10/04 01:25:30;;;;;;;1.27;0.90;;;21.50;55.40;;;;;;5074373;28;20442;-50
2021/10/04 01:27:55;;;;;;;1.50;1.20;;;21.50;55.20;;;;;;5083238;28;20502;-52
2021/10/04 01:30:24;;;;;;;0.87;0.87;;;21.50;55.10;;;;;;5076763;28;20460;-47
2021/10/04 01:32:51;;;;;;;5.40;0.93;;;21.60;55.00;;;;;;5080279;28;20195;-48
2021/10/04 01:35:17;;;;;;;1.30;1.10;;;21.50;54.80;;;;;;5078754;28;20445;-50
2021/10/04 01:37:43;;;;;;;1.30;1.20;;;21.60;55.00;;;;;;5075250;28;20588;-51
2021/10/04 01:40:10;;;;;;;1.23;1.13;;;21.60;54.80;;;;;;5078216;28;20520;-52
2021/10/04 01:42:37;;;;;;;1.00;0.90;;;21.60;54.80;;;;;;5079325;28;20520;-50
2021/10/04 01:45:05;;;;;;;3.23;1.10;;;21.70;54.60;;;;;;5080389;28;20433;-46
2021/10/04 01:47:31;;;;;;;1.57;1.20;;;21.70;54.80;;;;;;5082841;28;20442;-51
2021/10/04 01:49:57;;;;;;;0.80;0.80;;;21.70;54.40;;;;;;5084598;28;21342;-47
2021/10/04 01:52:23;;;;;;;0.97;0.90;;;21.70;54.20;;;;;;5078936;28;20195;-52
2021/10/04 01:54:49;;;;;;;1.20;1.10;;;21.50;54.00;;;;;;5075536;28;20445;-52
2021/10/04 01:57:15;;;;;;;1.10;1.00;;;21.50;54.90;;;;;;5082363;28;20195;-47
2021/10/04 01:59:40;;;;;;;0.80;0.80;;;21.50;54.40;;;;;;5081761;28;20651;-46
2021/10/04 02:02:06;;;;;;;1.20;1.10;;;21.50;54.30;;;;;;5079820;28;20187;-51
2021/10/04 02:04:31;;;;;;;1.30;0.80;;;21.40;54.20;;;;;;5074351;28;20192;-51
2021/10/04 02:06:58;;;;;;;1.50;1.33;;;21.30;54.60;;;;;;5077852;28;20195;-50
2021/10/04 02:09:23;;;;;;;1.40;1.10;;;21.20;54.90;;;;;;5082261;28;20765;-47
2021/10/04 02:11:49;;;;;;;1.40;1.03;;;21.20;54.90;;;;;;5078346;28;20464;-48
2021/10/04 02:14:15;;;;;;;1.97;0.97;;;21.20;55.10;;;;;;5082516;28;20822;-51
2021/10/04 02:16:41;;;;;;;1.70;0.90;;;21.20;55.10;;;;;;5080414;28;20269;-49
2021/10/04 02:19:07;;;;;;;1.20;1.10;;;21.30;55.50;;;;;;5082908;28;20477;-46
2021/10/04 02:21:32;;;;;;;1.20;1.10;;;21.30;55.20;;;;;;5077205;28;20191;-47
2021/10/04 02:23:58;;;;;;;1.10;1.00;;;21.30;55.10;;;;;;5078771;28;20800;-48
2021/10/04 02:26:24;;;;;;;1.57;1.47;;;21.30;55.40;;;;;;5076705;28;20282;-47
2021/10/04 02:28:50;;;;;;;1.43;1.10;;;21.30;55.50;;;;;;5076677;28;20342;-49
2021/10/04 02:31:16;;;;;;;1.23;1.13;;;21.30;55.60;;;;;;5077330;28;20214;-47
2021/10/04 02:33:42;;;;;;;1.33;1.07;;;21.30;55.60;;;;;;5079450;28;20431;-47
2021/10/04 02:36:08;;;;;;;1.47;1.37;;;21.30;55.90;;;;;;5087390;28;20689;-49
2021/10/04 02:38:34;;;;;;;1.30;1.20;;;21.30;55.90;;;;;;5083195;28;20441;-46
2021/10/04 02:40:59;;;;;;;2.80;1.17;;;21.20;56.00;;;;;;5076764;28;20659;-48
2021/10/04 02:43:25;;;;;;;1.10;1.07;;;21.20;56.00;;;;;;5076316;28;20195;-49
2021/10/04 02:45:52;;;;;;;1.67;1.57;;;21.20;56.30;;;;;;5088283;28;20191;-48
2021/10/04 02:48:18;;;;;;;1.23;1.10;;;21.30;56.30;;;;;;5076036;28;20234;-50
2021/10/04 02:50:45;;;;;;;2.97;1.20;;;21.30;56.30;;;;;;5076695;28;20452;-50
2021/10/04 02:53:11;;;;;;;2.20;1.40;;;21.40;56.30;;;;;;5073773;28;20483;-47
2021/10/04 02:55:37;;;;;;;1.20;1.10;;;21.30;56.40;;;;;;5083068;28;20426;-46
2021/10/04 02:58:03;;;;;;;1.33;1.23;;;21.30;56.40;;;;;;5079269;28;20195;-46
2021/10/04 03:00:30;;;;;;;1.90;1.20;;;21.30;56.50;;;;;;5081917;28;20547;-47
2021/10/04 03:02:55;;;;;;;1.47;1.30;;;21.20;56.50;;;;;;5074519;28;20937;-47
2021/10/04 03:05:21;;;;;;;1.20;1.10;;;21.20;56.50;;;;;;5071382;28;20461;-47
2021/10/04 03:07:46;;;;;;;1.67;1.57;;;21.00;56.40;;;;;;5083078;28;20446;-48
2021/10/04 03:10:12;;;;;;;1.03;1.00;;;21.00;56.80;;;;;;5084498;28;20187;-47
2021/10/04 03:12:38;;;;;;;1.17;1.07;;;20.90;56.90;;;;;;5082771;28;20253;-46
2021/10/04 03:15:05;;;;;;;1.27;1.13;;;20.80;57.10;;;;;;5075783;28;20449;-49
2021/10/04 03:17:31;;;;;;;1.10;1.00;;;20.80;57.20;;;;;;5073671;28;20750;-47
2021/10/04 03:19:56;;;;;;;0.97;0.97;;;20.80;57.10;;;;;;5084754;28;20444;-50
2021/10/04 03:22:22;;;;;;;4.80;1.03;;;20.70;56.80;;;;;;5082164;28;20434;-46
2021/10/04 03:24:48;;;;;;;1.13;0.90;;;20.70;57.20;;;;;;5088588;28;20191;-47
2021/10/04 03:27:15;;;;;;;1.30;1.07;;;20.70;57.50;;;;;;5080564;28;20722;-48
2021/10/04 03:29:40;;;;;;;1.03;0.90;;;20.80;57.20;;;;;;5076166;28;20498;-47
2021/10/04 03:32:06;;;;;;;1.30;1.20;;;20.80;57.10;;;;;;5083628;28;20524;-46
2021/10/04 03:34:32;;;;;;;1.27;1.17;;;20.90;57.10;;;;;;5088414;28;20610;-46
2021/10/04 03:36:59;;;;;;;1.70;1.60;;;20.90;57.20;;;;;;5079285;28;20445;-46
2021/10/04 03:39:24;;;;;;;2.30;1.40;;;20.90;57.10;;;;;;5090505;28;20677;-46
2021/10/04 03:41:50;;;;;;;1.10;1.00;;;21.00;57.20;;;;;;5082902;28;20441;-49
2021/10/04 03:44:16;;;;;;;1.80;1.43;;;21.10;57.10;;;;;;5078855;28;20187;-49
2021/10/04 03:46:41;;;;;;;1.40;1.30;;;21.20;57.20;;;;;;5077876;28;20211;-48
2021/10/04 03:49:07;;;;;;;1.50;1.33;;;21.20;56.90;;;;;;5087049;28;20215;-47
2021/10/04 03:51:32;;;;;;;1.53;1.40;;;21.30;56.90;;;;;;5087097;28;20196;-49
2021/10/04 03:53:58;;;;;;;3.43;1.43;;;21.30;56.80;;;;;;5083696;28;20289;-48
2021/10/04 03:56:24;;;;;;;1.27;1.10;;;21.30;56.60;;;;;;5083701;28;20232;-46
2021/10/04 03:58:50;;;;;;;1.13;1.03;;;21.40;56.60;;;;;;5083012;28;20266;-48
2021/10/04 04:01:15;;;;;;;1.73;1.60;;;21.40;56.50;;;;;;5087468;28;20792;-46
2021/10/04 04:03:41;;;;;;;1.90;1.80;;;21.40;56.50;;;;;;5082143;28;20187;-48
2021/10/04 04:06:07;;;;;;;2.13;1.30;;;21.40;56.50;;;;;;5088575;28;20272;-47
2021/10/04 04:08:34;;;;;;;1.20;1.10;;;21.40;56.30;;;;;;5087438;28;20226;-46
2021/10/04 04:11:01;;;;;;;1.50;1.40;;;21.40;56.40;;;;;;5079884;28;20199;-49
2021/10/04 04:13:27;;;;;;;1.33;1.23;;;21.50;56.40;;;;;;5082199;28;20959;-47
2021/10/04 04:15:52;;;;;;;1.30;1.20;;;21.50;56.20;;;;;;5084084;28;20440;-46
2021/10/04 04:18:18;;;;;;;1.47;1.10;;;21.50;56.10;;;;;;5083919;28;20296;-51
2021/10/04 04:20:44;;;;;;;2.40;2.17;;;21.40;56.00;;;;;;5082584;28;20195;-53
2021/10/04 04:23:09;;;;;;;1.87;1.43;;;21.40;56.10;;;;;;5084373;28;20199;-50
2021/10/04 04:25:35;;;;;;;2.60;1.47;;;21.40;56.20;;;;;;5079408;28;20188;-48
2021/10/04 04:28:01;;;;;;;4.70;1.47;;;21.40;56.50;;;;;;5076838;28;20239;-51
2021/10/04 04:30:28;;;;;;;3.40;1.33;;;21.50;56.60;;;;;;5080690;28;20601;-52
2021/10/04 04:32:53;;;;;;;1.77;1.67;;;21.50;56.50;;;;;;5083102;28;20464;-53
2021/10/04 04:35:19;;;;;;;3.17;1.17;;;21.50;56.20;;;;;;5087535;28;20438;-50
2021/10/04 04:37:45;;;;;;;1.20;1.10;;;21.50;56.30;;;;;;5081099;28;20661;-52
2021/10/04 04:40:14;;;;;;;1.33;1.20;;;21.40;56.20;;;;;;5076149;28;20284;-51
2021/10/04 04:42:42;;;;;;;4.57;1.37;;;21.30;56.30;;;;;;5077161;28;20195;-52
2021/10/04 04:45:11;;;;;;;1.83;1.20;;;21.30;56.60;;;;;;5081841;28;20437;-52
2021/10/04 04:47:37;;;;;;;1.40;1.23;;;21.30;56.90;;;;;;5078822;28;20489;-52
2021/10/04 04:50:04;;;;;;;1.80;1.50;;;21.30;56.60;;;;;;5076961;28;20433;-52
2021/10/04 04:52:30;;;;;;;2.50;1.20;;;21.40;56.70;;;;;;5075440;28;20784;-51
2021/10/04 04:54:56;;;;;;;1.40;1.13;;;21.40;56.40;;;;;;5077541;28;20437;-51
2021/10/04 04:57:21;;;;;;;2.13;1.00;;;21.40;56.20;;;;;;5079439;28;20333;-48
2021/10/04 04:59:47;;;;;;;1.00;0.90;;;21.30;56.10;;;;;;5083777;28;20543;-50
2021/10/04 05:02:12;;;;;;;1.10;1.07;;;21.20;56.00;;;;;;5083753;28;20248;-47
2021/10/04 05:04:38;;;;;;;1.43;0.90;;;21.20;56.10;;;;;;5085842;28;20211;-48
2021/10/04 05:07:04;;;;;;;1.13;1.03;;;21.20;56.20;;;;;;5072966;28;20187;-46
2021/10/04 05:09:29;;;;;;;2.23;1.13;;;21.20;56.20;;;;;;5074950;28;20227;-48
2021/10/04 05:11:55;;;;;;;1.97;1.00;;;21.20;56.10;;;;;;5085709;28;20222;-48
2021/10/04 05:14:21;;;;;;;7.40;1.47;;;21.10;55.90;;;;;;5078020;28;20531;-47
2021/10/04 05:16:46;;;;;;;7.63;1.70;;;21.00;56.50;;;;;;5078566;28;20203;-47
2021/10/04 05:19:13;;;;;;;2.70;1.10;;;21.00;57.90;;;;;;5081108;28;20674;-48
2021/10/04 05:21:39;;;;;;;1.13;1.13;;;21.00;57.50;;;;;;5077341;28;20200;-52
2021/10/04 05:24:05;;;;;;;1.50;1.20;;;21.10;57.20;;;;;;5085143;28;20460;-48
2021/10/04 05:26:31;;;;;;;1.40;1.20;;;21.10;56.90;;;;;;5086937;28;20195;-47
2021/10/04 05:28:57;;;;;;;1.20;1.10;;;21.10;56.70;;;;;;5075296;28;20501;-50
2021/10/04 05:31:22;;;;;;;2.20;1.23;;;21.10;56.40;;;;;;5079777;28;20433;-46
2021/10/04 05:33:48;;;;;;;1.30;1.20;;;21.20;56.30;;;;;;5074738;28;20183;-48
2021/10/04 05:36:14;;;;;;;1.40;1.30;;;21.20;56.00;;;;;;5077395;28;20660;-46
2021/10/04 05:38:39;;;;;;;1.70;1.50;;;21.20;56.00;;;;;;5084980;28;20565;-46
2021/10/04 05:41:06;;;;;;;1.40;1.30;;;21.10;56.30;;;;;;5083802;28;20206;-49
2021/10/04 05:43:34;;;;;;;1.40;1.30;;;21.00;56.40;;;;;;5088247;28;20223;-46
2021/10/04 05:46:01;;;;;;;1.80;1.70;;;21.00;56.80;;;;;;5091703;28;20456;-47
2021/10/04 05:48:27;;;;;;;1.53;1.43;;;20.90;57.10;;;;;;5086669;28;20499;-46
2021/10/04 05:50:53;;;;;;;1.87;1.67;;;20.70;57.40;;;;;;5077490;28;20433;-49
2021/10/04 05:53:18;;;;;;;1.50;1.40;;;20.70;57.60;;;;;;5083670;28;20442;-46
2021/10/04 05:55:45;;;;;;;1.83;1.73;;;20.60;57.90;;;;;;5082130;28;20196;-51
2021/10/04 05:58:11;;;;;;;2.07;1.97;;;20.50;58.10;;;;;;5082546;28;20200;-46
2021/10/04 06:00:37;;;;;;;3.60;1.90;;;20.40;58.30;;;;;;5083035;28;20952;-47
2021/10/04 06:03:03;;;;;;;1.57;1.47;;;20.30;58.60;;;;;;5085493;28;20187;-46
2021/10/04 06:05:28;;;;;;;3.50;1.70;;;20.30;59.10;;;;;;5086292;28;20517;-46
2021/10/04 06:07:54;;;;;;;2.17;1.90;;;20.20;59.50;;;;;;5078379;28;20203;-46
2021/10/04 06:10:20;;;;;;;3.67;1.97;;;20.10;59.60;;;;;;5086212;28;20211;-47
2021/10/04 06:12:46;;;;;;;2.17;2.00;;;20.10;59.60;;;;;;5088509;28;20887;-47
2021/10/04 06:15:13;;;;;;;2.47;2.27;;;20.00;59.60;;;;;;5077480;28;20430;-47
2021/10/04 06:17:40;;;;;;;2.53;2.33;;;20.00;59.70;;;;;;5081762;28;20445;-48
2021/10/04 06:20:07;;;;;;;2.73;2.53;;;20.00;59.80;;;;;;5086455;28;20430;-46
2021/10/04 06:22:33;;;;;;;2.80;2.60;;;20.00;60.10;;;;;;5082388;28;20445;-47
2021/10/04 06:24:58;;;;;;;2.63;2.43;;;19.90;60.10;;;;;;5083139;28;20444;-46
2021/10/04 06:27:24;;;;;;;3.50;2.60;;;19.90;60.30;;;;;;5086353;28;20465;-46
2021/10/04 06:29:51;;;;;;;3.97;2.40;;;19.90;60.50;;;;;;5081917;28;20307;-47
2021/10/04 06:32:17;;;;;;;2.63;2.43;;;19.90;60.70;;;;;;5087639;28;20469;-46
2021/10/04 06:34:43;;;;;;;3.20;2.90;;;19.90;60.80;;;;;;5085097;28;20191;-46
2021/10/04 06:37:08;;;;;;;2.87;2.63;;;20.00;61.10;;;;;;5088016;28;20187;-46
2021/10/04 06:39:34;;;;;;;2.77;2.57;;;20.00;61.30;;;;;;5087694;28;20918;-47
2021/10/04 06:41:59;;;;;;;3.00;2.70;;;20.00;61.00;;;;;;5076982;28;20281;-46
2021/10/04 06:44:25;;;;;;;3.33;3.13;;;20.00;60.80;;;;;;5079471;28;20202;-47
2021/10/04 06:46:51;;;;;;;4.30;2.73;;;20.00;60.80;;;;;;5091803;28;20198;-48
2021/10/04 06:49:17;;;;;;;2.97;2.77;;;20.00;61.10;;;;;;5090922;28;20223;-47
2021/10/04 06:51:43;;;;;;;2.90;2.70;;;20.00;61.00;;;;;;5088473;28;20188;-47
2021/10/04 06:54:08;;;;;;;3.83;3.07;;;20.10;61.10;;;;;;5079580;28;20430;-47
2021/10/04 06:56:34;;;;;;;2.73;2.53;;;20.10;61.10;;;;;;5077498;28;20279;-47
2021/10/04 06:58:59;;;;;;;2.87;2.67;;;20.00;61.10;;;;;;5083821;28;20286;-46
2021/10/04 07:01:25;;;;;;;2.70;2.50;;;20.00;61.20;;;;;;5080760;28;20197;-49
2021/10/04 07:03:51;;;;;;;3.40;2.90;;;20.00;61.20;;;;;;5086596;28;20650;-48
2021/10/04 07:06:16;;;;;;;2.87;2.67;;;20.00;62.00;;;;;;5083143;28;20560;-47
2021/10/04 07:08:42;;;;;;;4.13;3.73;;;20.00;61.20;;;;;;5088462;28;20254;-46
2021/10/04 07:11:08;;;;;;;5.17;4.00;;;20.00;61.20;;;;;;5077642;28;20285;-47
2021/10/04 07:13:35;;;;;;;4.13;3.83;;;20.00;61.30;;;;;;5079555;28;20528;-47
2021/10/04 07:16:02;;;;;;;4.20;3.60;;;20.00;61.20;;;;;;5076852;28;20278;-47
2021/10/04 07:18:27;;;;;;;4.00;3.67;;;20.00;61.20;;;;;;5090612;28;20805;-46
2021/10/04 07:20:53;;;;;;;4.67;4.30;;;20.00;61.20;;;;;;5091476;28;20433;-46
2021/10/04 07:23:18;;;;;;;4.40;4.10;;;20.00;61.30;;;;;;5087380;28;20566;-47
2021/10/04 07:25:44;;;;;;;4.80;4.40;;;20.00;61.30;;;;;;5085972;28;20198;-47
2021/10/04 07:28:10;;;;;;;4.37;3.97;;;19.90;61.30;;;;;;5081527;28;20243;-46
2021/10/04 07:30:36;;;;;;;4.27;3.93;;;19.90;61.70;;;;;;5072647;28;20242;-47
2021/10/04 07:33:05;;;;;;;3.90;3.60;;;19.90;61.80;;;;;;5084004;28;20191;-46
2021/10/04 07:35:31;;;;;;;3.60;3.30;;;19.90;61.80;;;;;;5087553;28;20206;-47
2021/10/04 07:37:57;;;;;;;3.20;2.90;;;19.80;61.80;;;;;;5090899;28;20436;-47
2021/10/04 07:40:23;;;;;;;2.27;2.17;;;19.80;61.90;;;;;;5090048;28;20425;-47
2021/10/04 07:42:50;;;;;;;2.13;2.03;;;19.80;62.10;;;;;;5088797;28;20433;-49
2021/10/04 07:45:16;;;;;;;2.10;2.00;;;19.80;62.10;;;;;;5086158;28;20441;-47
2021/10/04 07:47:43;;;;;;;2.53;2.33;;;19.80;62.10;;;;;;5090785;28;20467;-47
2021/10/04 07:50:10;;;;;;;2.50;1.83;;;19.80;62.00;;;;;;5085451;28;20597;-52
2021/10/04 07:52:37;;;;;;;2.63;1.77;;;19.70;62.40;;;;;;5090341;28;21134;-48
2021/10/04 07:55:04;;;;;;;6.40;3.00;;;19.60;62.60;;;;;;5085967;28;20430;-46
2021/10/04 07:57:29;;;;;;;31.87;22.33;;;19.60;63.00;;;;;;5076205;28;20920;-47
2021/10/04 07:59:55;;;;;;;5.83;4.00;;;19.60;63.00;;;;;;5086019;28;20528;-47
2021/10/04 08:02:21;;;;;;;2.30;1.40;;;19.60;62.40;;;;;;5076258;28;20287;-46
2021/10/04 08:04:46;;;;;;;37.70;22.07;;;19.60;62.30;;;;;;5088178;28;20202;-48
2021/10/04 08:07:12;;;;;;;3.20;2.90;;;19.60;62.30;;;;;;5080280;28;20650;-46
2021/10/04 08:09:37;;;;;;;27.23;17.20;;;19.50;62.60;;;;;;5089005;28;20227;-49
2021/10/04 08:12:04;;;;;;;7.47;4.67;;;19.50;62.70;;;;;;5087690;28;20194;-49
2021/10/04 08:14:30;;;;;;;2.60;1.80;;;19.50;62.70;;;;;;5088558;28;20275;-46
2021/10/04 08:16:56;;;;;;;2.23;1.47;;;19.40;62.60;;;;;;5086282;28;20437;-46
2021/10/04 08:19:22;;;;;;;1.70;1.60;;;19.30;63.30;;;;;;5087764;28;20524;-50
2021/10/04 08:21:48;;;;;;;7.30;1.60;;;19.40;63.70;;;;;;5080460;28;20533;-46
2021/10/04 08:24:14;;;;;;;2.50;1.40;;;19.40;64.00;;;;;;5080746;28;20955;-47
2021/10/04 08:26:40;;;;;;;2.07;1.60;;;19.40;64.10;;;;;;5082007;28;20203;-51
2021/10/04 08:29:05;;;;;;;4.87;1.30;;;19.40;64.20;;;;;;5084908;28;20333;-48
2021/10/04 08:31:32;;;;;;;1.20;1.10;;;19.40;63.90;;;;;;5091235;28;20862;-46
2021/10/04 08:34:01;;;;;;;2.40;1.30;;;19.40;63.90;;;;;;5087201;28;20195;-47
2021/10/04 08:36:30;;;;;;;2.70;1.60;;;19.40;64.10;;;;;;5077419;28;20436;-47
2021/10/04 08:38:56;;;;;;;1.40;1.20;;;19.40;63.90;;;;;;5087311;28;20487;-50
2021/10/04 08:41:23;;;;;;;1.10;1.00;;;19.40;63.70;;;;;;5090436;28;20434;-49
2021/10/04 08:43:51;;;;;;;0.80;0.80;;;19.40;63.60;;;;;;5082248;28;20249;-46
2021/10/04 08:46:17;;;;;;;1.37;1.20;;;19.50;63.50;;;;;;5084360;28;20438;-48
2021/10/04 08:48:43;;;;;;;1.60;1.10;;;19.40;63.30;;;;;;5080723;28;20487;-46
2021/10/04 08:51:10;;;;;;;1.73;1.20;;;19.50;63.20;;;;;;5092522;28;20509;-48
2021/10/04 08:53:39;;;;;;;1.20;1.10;;;19.60;63.30;;;;;;5091808;28;20429;-48
2021/10/04 08:56:06;;;;;;;2.10;1.30;;;19.60;63.00;;;;;;5087606;28;20430;-49
2021/10/04 08:58:32;;;;;;;1.67;1.57;;;19.60;63.00;;;;;;5083887;28;20445;-51
2021/10/04 09:00:59;;;;;;;1.47;1.37;;;19.60;63.30;;;;;;5079413;28;20957;-47
2021/10/04 09:03:25;;;;;;;1.10;0.90;;;19.60;63.20;;;;;;5090434;28;20445;-49
2021/10/04 09:05:59;;;;;;;1.80;1.20;;;19.60;63.00;;;;;;5081801;28;20447;-47
2021/10/04 09:08:25;;;;;;;1.47;1.00;;;19.50;63.20;;;;;;5090994;28;20463;-47
2021/10/04 09:10:55;;;;;;;1.10;1.07;;;19.50;63.40;;;;;;5084512;28;20796;-49
2021/10/04 09:13:22;;;;;;;5.77;5.40;;;19.50;63.40;;;;;;5081275;28;20278;-51
2021/10/04 09:15:51;;;;;;;3.00;2.90;;;19.50;63.80;;;;;;5083551;28;20461;-49
2021/10/04 09:18:23;;;;;;;1.40;1.30;;;19.60;63.70;;;;;;5091258;28;20455;-47
2021/10/04 09:20:53;;;;;;;1.60;1.27;;;19.60;63.70;;;;;;5080949;28;20450;-47
2021/10/04 09:23:56;;;;;;;1.17;1.10;;;19.50;63.80;;;;;;5087625;28;20478;-53
2021/10/04 09:26:24;;;;;;;1.17;1.00;;;19.60;64.00;;;;;;5085180;28;20502;-52
2021/10/04 09:28:56;;;;;;;1.13;1.03;;;19.60;63.80;;;;;;5088906;28;20576;-51
2021/10/04 09:31:25;;;;;;;1.60;1.50;;;19.60;63.70;;;;;;5080926;28;20534;-47
2021/10/04 09:34:09;;;;;;;1.00;0.90;;;19.70;63.40;;;;;;5081120;28;20434;-47
2021/10/04 09:36:37;;;;;;;1.13;1.03;;;19.70;63.50;;;;;;5087750;28;20437;-48
2021/10/04 09:39:23;;;;;;;1.53;1.40;;;19.70;63.30;;;;;;5080173;28;20446;-48
2021/10/04 09:42:04;;;;;;;1.23;1.13;;;19.70;63.30;;;;;;5079810;28;20863;-49
2021/10/04 09:44:44;;;;;;;0.90;0.90;;;19.80;63.30;;;;;;5087989;28;20838;-47
2021/10/04 09:47:16;;;;;;;1.80;1.30;;;19.90;63.20;;;;;;5091913;28;20441;-48
2021/10/04 09:50:07;;;;;;;1.60;1.10;;;19.90;63.00;;;;;;5075132;28;20485;-48
2021/10/04 09:53:00;;;;;;;1.07;1.07;;;19.90;62.60;;;;;;5089022;28;20502;-46
2021/10/04 09:55:38;;;;;;;1.60;1.50;;;19.90;62.50;;;;;;5084838;28;20452;-46
2021/10/04 09:58:14;;;;;;;1.10;1.00;;;19.90;63.00;;;;;;5090426;28;20449;-52
2021/10/04 10:00:54;;;;;;;1.10;1.10;;;19.90;62.70;;;;;;5089605;28;20449;-46
2021/10/04 10:03:22;;;;;;;1.33;1.23;;;19.90;62.80;;;;;;5088847;28;20464;-49
2021/10/04 10:05:57;;;;;;;1.13;1.03;;;19.90;62.80;;;;;;5083223;28;20426;-46
2021/10/04 10:08:25;;;;;;;3.00;1.27;;;19.90;62.70;;;;;;5081480;28;20488;-50
2021/10/04 10:10:54;;;;;;;2.53;1.13;;;19.90;62.20;;;;;;5080156;28;20442;-47
2021/10/04 10:13:22;;;;;;;1.83;1.40;;;19.90;62.90;;;;;;5089852;28;20429;-51
2021/10/04 10:16:10;;;;;;;1.40;0.90;;;19.90;62.80;;;;;;5090490;28;20468;-46
2021/10/04 10:18:40;;;;;;;0.87;0.87;;;20.00;62.70;;;;;;5074309;28;20890;-47
2021/10/04 10:21:07;;;;;;;1.13;1.03;;;20.10;62.60;;;;;;5088042;28;20864;-48
2021/10/04 10:23:51;;;;;;;1.20;1.10;;;20.20;62.70;;;;;;5091071;28;20437;-47
2021/10/04 10:26:36;;;;;;;1.50;0.80;;;20.30;62.70;;;;;;5086363;28;20443;-48
2021/10/04 10:29:16;;;;;;;1.00;0.90;;;20.30;62.40;;;;;;5084950;28;21014;-47
2021/10/04 10:31:48;;;;;;;1.50;1.03;;;20.40;62.50;;;;;;5078818;28;20446;-46
2021/10/04 10:34:32;;;;;;;1.00;0.97;;;20.50;62.40;;;;;;5085443;28;20825;-47
2021/10/04 10:37:23;;;;;;;0.80;0.80;;;20.50;62.30;;;;;;5087241;28;21029;-50
2021/10/04 10:40:13;;;;;;;1.47;1.00;;;20.50;61.90;;;;;;5084928;28;20434;-52
2021/10/04 10:42:41;;;;;;;0.80;0.80;;;20.40;61.60;;;;;;5083009;28;20436;-47
2021/10/04 10:45:10;;;;;;;1.37;0.80;;;20.50;61.20;;;;;;5086718;28;20461;-52
2021/10/04 10:47:35;;;;;;;2.60;0.97;;;20.50;61.10;;;;;;5076942;28;20480;-50
2021/10/04 10:50:28;;;;;;;1.47;0.70;;;20.50;61.30;;;;;;5086765;28;20513;-51
2021/10/04 10:52:56;;;;;;;1.30;0.80;;;20.60;61.50;;;;;;5076678;28;20196;-46
2021/10/04 10:55:22;;;;;;;0.80;0.80;;;20.70;61.70;;;;;;5082547;28;20440;-48
2021/10/04 10:57:51;;;;;;;2.10;1.10;;;20.90;61.40;;;;;;5082669;28;20865;-47
2021/10/04 11:00:22;;;;;;;2.30;0.90;;;21.10;60.30;;;;;;5085229;28;20228;-46
2021/10/04 11:02:47;;;;;;;1.73;1.00;;;21.30;59.70;;;;;;5079066;28;21110;-50
2021/10/04 11:05:38;;;;;;;1.50;0.90;;;21.40;59.40;;;;;;5085946;28;20467;-51
2021/10/04 11:08:04;;;;;;;2.73;0.90;;;21.50;59.40;;;;;;5083997;28;20219;-50
2021/10/04 11:10:29;;;;;;;0.90;0.90;;;21.60;59.30;;;;;;5088238;28;20437;-50
2021/10/04 11:13:07;;;;;;;1.57;0.90;;;21.80;58.90;;;;;;5085389;28;20428;-47
2021/10/04 11:15:34;;;;;;;1.17;0.90;;;21.90;58.40;;;;;;5088912;28;20266;-47
2021/10/04 11:18:00;;;;;;;1.00;1.00;;;21.90;57.90;;;;;;5090342;28;20761;-52
2021/10/04 11:20:26;;;;;;;0.80;0.80;;;21.90;58.20;;;;;;5071675;28;20505;-50
2021/10/04 11:23:16;;;;;;;1.67;0.93;;;22.00;57.90;;;;;;5082328;28;20191;-46
2021/10/04 11:25:43;;;;;;;1.10;0.90;;;22.10;57.30;;;;;;5083565;28;20440;-46
2021/10/04 11:28:11;;;;;;;6.43;1.27;;;22.10;57.30;;;;;;5078913;28;20805;-50
2021/10/04 11:30:57;;;;;;;2.40;1.47;;;22.00;57.80;;;;;;5079620;28;20448;-51
2021/10/04 11:33:25;;;;;;;1.00;0.90;;;22.10;57.10;;;;;;5073581;28;21311;-46
2021/10/04 11:36:08;;;;;;;1.53;0.90;;;22.10;57.40;;;;;;5069569;28;21226;-49
2021/10/04 11:38:37;;;;;;;1.00;0.90;;;22.20;57.00;;;;;;5076629;28;20920;-51
2021/10/04 11:41:04;;;;;;;1.10;0.97;;;22.20;56.80;;;;;;5078891;28;20843;-47
2021/10/04 11:43:35;;;;;;;1.00;0.90;;;22.30;55.40;;;;;;5087552;28;20433;-50
2021/10/04 11:46:23;;;;;;;1.00;0.90;;;22.40;56.30;;;;;;5087452;28;20437;-47
2021/10/04 11:48:49;;;;;;;1.43;0.93;;;22.50;56.20;;;;;;5085913;28;20538;-47
2021/10/04 11:51:27;;;;;;;1.00;0.97;;;22.60;56.30;;;;;;5084866;28;20422;-46
2021/10/04 11:53:53;;;;;;;1.10;1.10;;;22.70;56.10;;;;;;5084839;28;20245;-48
2021/10/04 11:56:20;;;;;;;1.07;1.00;;;22.70;55.50;;;;;;5080320;28;20449;-50
2021/10/04 11:58:55;;;;;;;1.53;1.20;;;22.80;55.60;;;;;;5088623;28;20493;-47
2021/10/04 12:01:35;;;;;;;0.83;0.80;;;22.80;55.50;;;;;;5082219;28;20451;-50
2021/10/04 12:04:12;;;;;;;1.20;1.10;;;22.90;55.30;;;;;;5079924;28;20468;-47
2021/10/04 12:06:43;;;;;;;0.97;0.97;;;22.90;54.40;;;;;;5087316;28;20428;-46
2021/10/04 12:09:27;;;;;;;0.90;0.90;;;22.80;55.00;;;;;;5080416;28;20485;-50
2021/10/04 12:11:58;;;;;;;1.77;1.30;;;22.80;54.70;;;;;;5079476;28;20449;-51
2021/10/04 12:14:27;;;;;;;0.80;0.80;;;22.80;54.10;;;;;;5084277;28;20436;-49
2021/10/04 12:16:58;;;;;;;0.97;0.93;;;22.80;54.30;;;;;;5088954;28;20838;-47
2021/10/04 12:19:24;;;;;;;1.00;0.70;;;22.80;54.30;;;;;;5087758;28;20441;-49
2021/10/04 12:21:51;;;;;;;1.23;1.13;;;22.80;53.90;;;;;;5082169;28;20430;-49
2021/10/04 12:24:27;;;;;;;1.37;0.90;;;22.70;53.50;;;;;;5085782;28;20850;-47
2021/10/04 12:27:08;;;;;;;1.97;1.00;;;22.70;53.60;;;;;;5084394;28;20445;-51
2021/10/04 12:29:42;;;;;;;2.70;1.20;;;22.70;53.80;;;;;;5080734;28;20499;-47
2021/10/04 12:32:24;;;;;;;2.17;0.80;;;22.60;53.70;;;;;;5092712;28;20443;-50
2021/10/04 12:35:09;;;;;;;6.90;1.20;;;22.60;54.30;;;;;;5089112;28;20441;-46
2021/10/04 12:37:51;;;;;;;1.80;1.40;;;22.60;54.60;;;;;;5082930;28;20511;-51
2021/10/04 12:40:23;;;;;;;3.00;1.00;;;22.60;53.90;;;;;;5088596;28;20811;-48
2021/10/04 12:42:57;;;;;;;2.40;1.30;;;22.60;54.40;;;;;;5091333;28;20777;-50
2021/10/04 12:45:23;;;;;;;1.03;0.93;;;22.60;55.30;;;;;;5087323;28;20433;-47
2021/10/04 12:48:04;;;;;;;2.43;1.30;;;22.70;55.50;;;;;;5082598;28;21699;-47
2021/10/04 12:50:36;;;;;;;5.63;1.40;;;22.70;55.30;;;;;;5076845;28;20200;-51